createdAt,value
2017-12-28T00:01:52.142Z,74.70
2017-12-28T00:04:21.092Z,75.90
2017-12-28T00:06:49.259Z,75.10
2017-12-28T00:09:17.838Z,74.70
2017-12-28T00:11:46.125Z,75.10
2017-12-28T00:14:14.240Z,75.00
2017-12-28T00:16:43.071Z,74.70
2017-12-28T00:19:11.236Z,74.60
2017-12-28T00:21:39.626Z,75.00
2017-12-28T00:24:08.400Z,74.70
2017-12-28T00:26:36.611Z,74.80
2017-12-28T00:29:04.756Z,75.20
2017-12-28T00:31:33.496Z,75.30
2017-12-28T00:34:03.659Z,75.40
2017-12-28T00:36:31.854Z,75.30
2017-12-28T00:38:59.999Z,75.40
2017-12-28T00:41:29.528Z,74.70
2017-12-28T00:43:58.270Z,74.70
2017-12-28T00:46:26.371Z,75.10
2017-12-28T00:48:55.091Z,74.70
2017-12-28T00:51:23.606Z,74.80
2017-12-28T00:53:51.757Z,75.10
2017-12-28T00:56:20.271Z,75.20
2017-12-28T00:58:50.005Z,74.90
2017-12-28T01:01:18.812Z,74.90
2017-12-28T01:03:46.971Z,75.20
2017-12-28T01:06:15.580Z,75.00
2017-12-28T01:08:44.103Z,74.40
2017-12-28T01:11:13.044Z,75.10
2017-12-28T01:13:41.168Z,75.00
2017-12-28T01:16:09.847Z,75.70
2017-12-28T01:18:38.120Z,75.90
2017-12-28T01:21:06.261Z,76.20
2017-12-28T01:23:35.052Z,76.70
2017-12-28T01:26:03.176Z,77.70
2017-12-28T01:28:32.063Z,78.40
2017-12-28T01:31:00.522Z,78.10
2017-12-28T01:33:28.656Z,78.40
2017-12-28T01:35:56.802Z,78.60
2017-12-28T01:38:26.188Z,79.40
2017-12-28T01:40:54.984Z,79.30
2017-12-28T01:43:23.127Z,79.30
2017-12-28T01:45:51.818Z,79.80
2017-12-28T01:48:20.583Z,79.90
2017-12-28T01:50:48.783Z,79.80
2017-12-28T01:53:16.913Z,80.70
2017-12-28T01:55:45.370Z,81.20
2017-12-28T01:58:14.304Z,81.40
2017-12-28T02:00:42.418Z,81.20
2017-12-28T02:03:11.014Z,80.50
2017-12-28T02:05:39.248Z,80.60
2017-12-28T02:08:07.362Z,81.10
2017-12-28T02:10:35.714Z,81.30
2017-12-28T02:13:03.833Z,81.00
2017-12-28T02:15:33.130Z,81.50
2017-12-28T02:18:02.127Z,81.20
2017-12-28T02:20:31.556Z,80.70
2017-12-28T02:22:59.704Z,80.60
2017-12-28T02:25:28.597Z,81.10
2017-12-28T02:27:57.510Z,80.60
2017-12-28T02:30:26.425Z,80.40
2017-12-28T02:32:54.543Z,80.60
2017-12-28T02:35:23.028Z,80.40
2017-12-28T02:37:52.594Z,79.80
2017-12-28T02:40:20.747Z,79.80
2017-12-28T02:42:49.706Z,79.40
2017-12-28T02:45:20.273Z,79.50
2017-12-28T02:47:48.435Z,79.50
2017-12-28T02:50:16.947Z,78.50
2017-12-28T02:52:45.094Z,79.90
2017-12-28T02:55:13.819Z,79.80
2017-12-28T02:57:42.424Z,80.00
2017-12-28T03:00:10.542Z,80.40
2017-12-28T03:02:39.002Z,80.30
2017-12-28T03:05:08.401Z,80.80
2017-12-28T03:07:37.510Z,80.70
2017-12-28T03:10:05.642Z,80.70
2017-12-28T03:12:34.378Z,80.60
2017-12-28T03:15:02.833Z,81.60
2017-12-28T03:17:31.825Z,80.60
2017-12-28T03:20:00.716Z,81.20
2017-12-28T03:22:29.620Z,81.00
2017-12-28T03:24:58.987Z,80.60
2017-12-28T03:27:27.132Z,80.60
2017-12-28T03:29:55.274Z,80.90
2017-12-28T03:32:23.962Z,80.70
2017-12-28T03:34:52.151Z,80.70
2017-12-28T03:37:20.497Z,79.80
2017-12-28T03:39:50.517Z,79.50
2017-12-28T03:42:19.934Z,78.80
2017-12-28T03:44:48.798Z,78.80
2017-12-28T03:47:16.927Z,78.40
2017-12-28T03:49:45.480Z,78.80
2017-12-28T03:52:13.975Z,77.40
2017-12-28T03:54:42.108Z,75.60
2017-12-28T03:57:10.812Z,75.40
2017-12-28T03:59:40.253Z,73.60
2017-12-28T04:02:08.527Z,73.60
2017-12-28T04:04:36.715Z,73.90
2017-12-28T04:07:05.375Z,73.70
2017-12-28T04:09:33.518Z,72.90
2017-12-28T04:12:02.448Z,72.70
2017-12-28T04:14:31.090Z,72.60
2017-12-28T04:16:59.252Z,73.70
2017-12-28T04:19:28.879Z,72.30
2017-12-28T04:21:57.752Z,71.20
2017-12-28T04:24:27.025Z,71.10
2017-12-28T04:26:55.408Z,70.70
2017-12-28T04:29:23.528Z,70.60
2017-12-28T04:31:52.402Z,69.90
2017-12-28T04:34:21.235Z,69.10
2017-12-28T04:36:49.515Z,68.90
2017-12-28T04:39:17.642Z,70.80
2017-12-28T04:41:46.348Z,69.20
2017-12-28T04:44:15.941Z,69.50
2017-12-28T04:46:44.859Z,68.70
2017-12-28T04:49:13.724Z,68.90
2017-12-28T04:51:42.694Z,69.00
2017-12-28T04:54:11.173Z,68.90
2017-12-28T04:56:39.264Z,68.40
2017-12-28T04:59:07.828Z,68.50
2017-12-28T05:01:36.425Z,68.20
2017-12-28T05:04:04.586Z,68.00
2017-12-28T05:06:33.240Z,69.40
2017-12-28T05:09:01.616Z,69.30
2017-12-28T05:11:29.740Z,69.20
2017-12-28T05:13:58.408Z,70.00
2017-12-28T05:16:26.957Z,69.70
2017-12-28T05:18:55.071Z,69.40
2017-12-28T05:21:23.644Z,69.30
2017-12-28T05:23:52.039Z,69.10
2017-12-28T05:26:20.179Z,69.00
2017-12-28T05:28:48.865Z,69.00
2017-12-28T05:31:17.469Z,68.90
2017-12-28T05:33:45.622Z,69.40
2017-12-28T05:36:14.077Z,70.30
2017-12-28T05:38:43.536Z,70.90
2017-12-28T05:41:12.242Z,70.90
2017-12-28T05:43:40.380Z,71.90
2017-12-28T05:46:09.149Z,72.70
2017-12-28T05:48:38.021Z,71.90
2017-12-28T05:51:06.142Z,71.30
2017-12-28T05:53:34.812Z,71.00
2017-12-28T05:56:04.530Z,71.60
2017-12-28T05:58:32.710Z,70.70
2017-12-28T06:01:00.824Z,71.20
2017-12-28T06:03:30.150Z,71.10
2017-12-28T06:05:59.116Z,71.10
2017-12-28T06:08:28.156Z,71.90
2017-12-28T06:10:56.322Z,71.00
2017-12-28T06:13:25.042Z,70.90
2017-12-28T06:15:53.382Z,71.10
2017-12-28T06:18:21.520Z,71.20
2017-12-28T06:20:50.729Z,69.80
2017-12-28T06:23:20.048Z,70.80
2017-12-28T06:25:48.243Z,70.80
2017-12-28T06:28:16.364Z,69.90
2017-12-28T06:30:46.433Z,68.20
2017-12-28T06:33:14.710Z,68.50
2017-12-28T06:35:43.502Z,69.60
2017-12-28T06:38:11.665Z,69.60
2017-12-28T06:40:40.014Z,68.70
2017-12-28T06:43:09.044Z,68.60
2017-12-28T06:45:37.208Z,68.60
2017-12-28T06:48:05.901Z,69.50
2017-12-28T06:50:34.017Z,67.60
2017-12-28T06:53:02.245Z,67.90
2017-12-28T06:55:31.297Z,67.40
2017-12-28T06:58:00.623Z,67.50
2017-12-28T07:00:29.652Z,67.30
2017-12-28T07:02:57.812Z,67.20
2017-12-28T07:05:27.105Z,67.00
2017-12-28T07:07:55.967Z,66.40
2017-12-28T07:10:25.013Z,67.30
2017-12-28T07:12:53.951Z,66.60
2017-12-28T07:15:22.680Z,66.50
2017-12-28T07:17:51.221Z,67.40
2017-12-28T07:20:20.124Z,68.00
2017-12-28T07:22:49.035Z,67.80
2017-12-28T07:25:17.685Z,67.80
2017-12-28T07:27:46.476Z,67.60
2017-12-28T07:30:14.617Z,67.00
2017-12-28T07:32:43.222Z,68.00
2017-12-28T07:35:11.744Z,68.50
2017-12-28T07:37:40.796Z,68.20
2017-12-28T07:40:08.897Z,68.20
2017-12-28T07:42:38.262Z,69.10
2017-12-28T07:45:07.013Z,68.20
2017-12-28T07:47:35.150Z,69.30
2017-12-28T07:50:04.585Z,69.50
2017-12-28T07:52:33.227Z,69.00
2017-12-28T07:55:02.914Z,68.90
2017-12-28T07:57:31.559Z,68.90
2017-12-28T08:00:00.342Z,69.30
2017-12-28T08:02:29.849Z,69.60
2017-12-28T08:04:58.723Z,69.50
2017-12-28T08:07:28.162Z,69.50
2017-12-28T08:09:56.624Z,69.40
2017-12-28T08:12:25.501Z,69.30
2017-12-28T08:14:54.428Z,69.30
2017-12-28T08:17:22.977Z,69.20
2017-12-28T08:19:51.856Z,69.60
2017-12-28T08:22:19.984Z,69.60
2017-12-28T08:24:48.694Z,70.10
2017-12-28T08:27:16.951Z,69.40
2017-12-28T08:29:45.129Z,69.50
2017-12-28T08:32:13.885Z,69.30
2017-12-28T08:34:42.006Z,69.70
2017-12-28T08:37:10.108Z,70.30
2017-12-28T08:39:39.375Z,70.40
2017-12-28T08:42:07.628Z,70.30
2017-12-28T08:44:35.752Z,69.70
2017-12-28T08:47:04.946Z,70.00
2017-12-28T08:49:33.082Z,70.00
2017-12-28T08:52:01.193Z,70.10
2017-12-28T08:54:29.757Z,69.30
2017-12-28T08:56:57.901Z,69.90
2017-12-28T08:59:27.814Z,68.90
2017-12-28T09:01:56.164Z,70.20
2017-12-28T09:04:25.738Z,69.70
2017-12-28T09:06:54.563Z,69.70
2017-12-28T09:09:23.476Z,69.80
2017-12-28T09:11:51.603Z,69.70
2017-12-28T09:14:21.227Z,69.30
2017-12-28T09:16:50.821Z,69.20
2017-12-28T09:19:19.944Z,69.30
2017-12-28T09:21:48.968Z,69.50
2017-12-28T09:24:17.955Z,68.80
2017-12-28T09:26:46.709Z,68.70
2017-12-28T09:29:16.210Z,68.30
2017-12-28T09:31:45.405Z,68.00
2017-12-28T09:34:13.518Z,68.00
2017-12-28T09:36:43.615Z,68.20
2017-12-28T09:39:12.242Z,68.20
2017-12-28T09:41:40.705Z,68.10
2017-12-28T09:44:08.921Z,69.00
2017-12-28T09:46:37.507Z,68.40
2017-12-28T09:49:07.089Z,68.70
2017-12-28T09:51:35.930Z,68.60
2017-12-28T09:54:05.477Z,69.60
2017-12-28T09:56:33.731Z,69.60
2017-12-28T09:59:02.653Z,68.20
2017-12-28T10:01:31.482Z,68.90
2017-12-28T10:03:59.704Z,69.10
2017-12-28T10:06:28.183Z,68.70
2017-12-28T10:08:57.286Z,68.70
2017-12-28T10:11:25.430Z,68.90
2017-12-28T10:13:53.959Z,68.20
2017-12-28T10:16:22.564Z,68.60
2017-12-28T10:18:50.730Z,69.00
2017-12-28T10:21:18.860Z,69.10
2017-12-28T10:23:47.651Z,69.30
2017-12-28T10:26:16.162Z,69.30
2017-12-28T10:28:44.296Z,69.60
2017-12-28T10:31:12.920Z,69.60
2017-12-28T10:33:41.181Z,68.70
2017-12-28T10:36:09.293Z,69.20
2017-12-28T10:38:37.726Z,69.10
2017-12-28T10:41:05.910Z,69.00
2017-12-28T10:43:34.026Z,69.50
2017-12-28T10:46:02.535Z,68.80
2017-12-28T10:48:31.562Z,68.40
2017-12-28T10:50:59.668Z,68.90
2017-12-28T10:53:28.980Z,66.90
2017-12-28T10:55:58.324Z,66.90
2017-12-28T10:58:26.457Z,66.80
2017-12-28T11:00:55.329Z,67.90
2017-12-28T11:03:24.567Z,67.90
2017-12-28T11:05:54.108Z,67.20
2017-12-28T11:08:22.292Z,67.20
2017-12-28T11:10:50.414Z,66.70
2017-12-28T11:13:19.484Z,66.90
2017-12-28T11:15:47.699Z,66.80
2017-12-28T11:18:15.812Z,67.50
2017-12-28T11:20:44.517Z,68.40
2017-12-28T11:23:12.646Z,68.20
2017-12-28T11:25:40.795Z,69.20
2017-12-28T11:28:10.060Z,68.90
2017-12-28T11:30:38.950Z,68.90
2017-12-28T11:33:07.187Z,68.60
2017-12-28T11:35:35.820Z,68.80
2017-12-28T11:38:04.724Z,70.90
2017-12-28T11:40:33.670Z,71.00
2017-12-28T11:49:23.090Z,71.10
